Burns Flat, Oklahoma
Current Conditions -  °F | °C
As of 2:53 PM on Thursday 20 Nov 2014 (Local Time) from KCSM Reporting Station
Clear Clear  
Wind Chill: 56°   Ceiling: Unl
Heat Index: 56°   Visibility: 10mi
Dew Point: 36°   Wind: 7mph
Humidity: 47%   Direction: 90°E
Pressure: 29.99"   Gusts: NA
Location:  35.35°N, 99.17°W
Report Text: KCSM 202053Z 09006KT 10SM CLR 13/02 A2999 RMK AO2 SLP153 T01330022 56020
Loading
Personal Weather Stations






























Interactive Weather Map New forecast layout! Learn more

10-Day Weather Forecast

Advertisements
Track Severe Weather on mobile